createdAt,value
2022-11-04T00:02:03.081Z,45.77
2022-11-04T00:04:29.715Z,45.66
2022-11-04T00:06:57.413Z,45.72
2022-11-04T00:09:27.304Z,45.65
2022-11-04T00:12:12.684Z,45.67
2022-11-04T00:14:39.237Z,45.84
2022-11-04T00:17:22.831Z,45.60
2022-11-04T00:20:12.588Z,45.82
2022-11-04T00:22:59.943Z,45.80
2022-11-04T00:25:45.459Z,45.84
2022-11-04T00:28:30.232Z,45.65
2022-11-04T00:30:58.107Z,45.67
2022-11-04T00:33:27.420Z,45.73
2022-11-04T00:35:56.608Z,45.56
2022-11-04T00:38:24.731Z,45.73
2022-11-04T00:40:51.214Z,45.76
2022-11-04T00:43:17.851Z,45.75
2022-11-04T00:45:44.358Z,45.70
2022-11-04T00:48:11.138Z,45.64
2022-11-04T00:50:37.772Z,45.53
2022-11-04T00:53:04.860Z,45.48
2022-11-04T00:55:31.512Z,45.54
2022-11-04T00:57:58.951Z,45.50
2022-11-04T01:00:25.423Z,45.60
2022-11-04T01:02:51.866Z,45.64
2022-11-04T01:05:18.485Z,45.54
2022-11-04T01:07:44.987Z,45.47
2022-11-04T01:10:11.541Z,45.56
2022-11-04T01:12:38.082Z,45.57
2022-11-04T01:15:05.292Z,45.47
2022-11-04T01:17:31.774Z,45.43
2022-11-04T01:19:58.230Z,45.57
2022-11-04T01:22:24.720Z,45.60
2022-11-04T01:24:51.215Z,45.50
2022-11-04T01:27:17.718Z,45.58
2022-11-04T01:29:44.235Z,45.59
2022-11-04T01:32:10.775Z,45.55
2022-11-04T01:34:42.405Z,45.41
2022-11-04T01:37:10.336Z,45.45
2022-11-04T01:39:36.785Z,45.46
2022-11-04T01:44:42.772Z,45.55
2022-11-04T01:50:20.663Z,45.38
2022-11-04T01:52:52.201Z,45.58
2022-11-04T01:55:33.378Z,45.50
2022-11-04T01:58:09.153Z,45.49
2022-11-04T02:00:39.322Z,45.40
2022-11-04T02:03:15.077Z,45.46
2022-11-04T02:05:43.056Z,45.38
2022-11-04T02:08:11.336Z,45.44
2022-11-04T02:10:41.673Z,45.37
2022-11-04T02:13:08.496Z,45.50
2022-11-04T02:15:46.065Z,45.75
2022-11-04T02:18:29.845Z,45.52
2022-11-04T02:21:10.477Z,45.54
2022-11-04T02:23:49.122Z,45.42
2022-11-04T02:26:40.447Z,45.44
2022-11-04T02:29:44.333Z,45.44
2022-11-04T02:32:20.174Z,45.35
2022-11-04T02:35:02.074Z,45.43
2022-11-04T02:37:42.641Z,45.38
2022-11-04T02:40:15.149Z,45.35
2022-11-04T02:42:54.741Z,45.50
2022-11-04T02:45:33.463Z,45.47
2022-11-04T02:48:22.943Z,45.42
2022-11-04T02:50:49.358Z,45.46
2022-11-04T02:53:20.632Z,45.43
2022-11-04T02:55:52.305Z,45.33
2022-11-04T02:58:23.607Z,45.50
2022-11-04T03:00:52.562Z,45.45
2022-11-04T03:03:26.446Z,45.42
2022-11-04T03:05:57.037Z,45.37
2022-11-04T03:08:34.865Z,45.33
2022-11-04T03:11:10.803Z,45.41
2022-11-04T03:13:41.179Z,45.44
2022-11-04T03:16:13.883Z,45.52
2022-11-04T03:18:55.196Z,45.44
2022-11-04T03:21:23.911Z,45.40
2022-11-04T03:23:50.567Z,45.57
2022-11-04T03:26:25.584Z,45.64
2022-11-04T03:29:13.375Z,45.38
2022-11-04T03:31:50.730Z,45.31
2022-11-04T03:34:17.227Z,45.60
2022-11-04T03:36:43.908Z,45.55
2022-11-04T03:39:10.568Z,45.57
2022-11-04T03:41:43.693Z,45.42
2022-11-04T03:44:10.194Z,45.47
2022-11-04T03:46:37.108Z,45.59
2022-11-04T03:49:05.382Z,45.54
2022-11-04T03:51:31.880Z,45.37
2022-11-04T03:53:58.862Z,45.33
2022-11-04T03:56:47.149Z,45.50
2022-11-04T03:59:13.548Z,45.55
2022-11-04T04:02:00.746Z,45.37
2022-11-04T04:04:35.611Z,45.56
2022-11-04T04:07:10.602Z,45.47
2022-11-04T04:09:44.366Z,45.28
2022-11-04T04:12:20.529Z,45.47
2022-11-04T04:14:51.540Z,45.38
2022-11-04T04:17:23.849Z,45.46
2022-11-04T04:19:55.353Z,45.44
2022-11-04T04:22:27.039Z,45.57
2022-11-04T04:25:15.835Z,45.36
2022-11-04T04:27:44.812Z,45.50
2022-11-04T04:30:14.408Z,45.54
2022-11-04T04:32:44.709Z,45.55
2022-11-04T04:35:30.585Z,45.48
2022-11-04T04:38:21.295Z,45.39
2022-11-04T04:41:10.335Z,45.40
2022-11-04T04:44:00.168Z,45.56
2022-11-04T04:46:29.070Z,45.33
2022-11-04T04:48:55.608Z,45.36
2022-11-04T04:51:22.794Z,45.52
2022-11-04T04:53:49.225Z,45.44
2022-11-04T04:56:15.670Z,45.45
2022-11-04T04:58:42.106Z,45.58
2022-11-04T05:01:09.113Z,45.45
2022-11-04T05:03:37.826Z,45.49
2022-11-04T05:06:07.631Z,45.19
2022-11-04T05:08:35.283Z,45.40
2022-11-04T05:11:01.790Z,45.43
2022-11-04T05:13:30.170Z,45.26
2022-11-04T05:15:57.863Z,45.40
2022-11-04T05:18:24.341Z,45.47
2022-11-04T05:20:50.940Z,45.37
2022-11-04T05:23:17.496Z,45.51
2022-11-04T05:25:43.950Z,45.54
2022-11-04T05:28:10.839Z,45.62
2022-11-04T05:30:37.642Z,45.43
2022-11-04T05:33:05.275Z,45.47
2022-11-04T05:35:32.524Z,45.37
2022-11-04T05:37:59.054Z,45.58
2022-11-04T05:40:25.743Z,45.63
2022-11-04T05:42:52.176Z,45.43
2022-11-04T05:45:18.864Z,45.66
2022-11-04T05:47:45.353Z,45.61
2022-11-04T05:50:11.903Z,45.60
2022-11-04T05:52:38.458Z,45.56
2022-11-04T05:55:05.401Z,45.57
2022-11-04T05:57:31.902Z,45.44
2022-11-04T05:59:58.335Z,45.45
2022-11-04T06:02:24.858Z,45.67
2022-11-04T06:04:51.416Z,45.62
2022-11-04T06:07:17.973Z,45.62
2022-11-04T06:09:44.450Z,45.55
2022-11-04T06:12:17.031Z,45.60
2022-11-04T06:14:44.231Z,45.64
2022-11-04T06:17:20.812Z,45.58
2022-11-04T06:19:48.220Z,45.62
2022-11-04T06:22:17.120Z,45.61
2022-11-04T06:24:43.878Z,45.92
2022-11-04T06:27:10.782Z,45.69
2022-11-04T06:29:40.171Z,45.62
2022-11-04T06:32:14.725Z,45.71
2022-11-04T06:34:41.744Z,45.63
2022-11-04T06:37:09.281Z,45.55
2022-11-04T06:39:36.262Z,45.65
2022-11-04T06:42:03.477Z,45.72
2022-11-04T06:44:30.337Z,45.46
2022-11-04T06:46:56.856Z,45.66
2022-11-04T06:49:23.521Z,45.65
2022-11-04T06:51:50.494Z,45.56
2022-11-04T06:54:17.770Z,45.62
2022-11-04T06:56:44.855Z,45.59
2022-11-04T06:59:20.506Z,45.63
2022-11-04T07:01:49.042Z,45.52
2022-11-04T07:04:15.695Z,45.58
2022-11-04T07:06:44.341Z,45.66
2022-11-04T07:09:13.951Z,45.75
2022-11-04T07:11:41.424Z,45.59
2022-11-04T07:14:09.094Z,45.68
2022-11-04T07:16:35.888Z,45.58
2022-11-04T07:19:03.190Z,45.76
2022-11-04T07:21:29.724Z,45.76
2022-11-04T07:23:56.294Z,45.71
2022-11-04T07:26:22.773Z,45.60
2022-11-04T07:28:49.261Z,45.70
2022-11-04T07:31:16.979Z,45.53
2022-11-04T07:33:43.769Z,45.56
2022-11-04T07:36:12.593Z,45.80
2022-11-04T07:38:39.139Z,45.63
2022-11-04T07:41:05.807Z,45.85
2022-11-04T07:43:32.377Z,45.73
2022-11-04T07:46:07.481Z,45.72
2022-11-04T07:48:34.756Z,45.67
2022-11-04T07:51:01.482Z,45.58
2022-11-04T07:53:29.970Z,45.69
2022-11-04T07:55:57.082Z,45.82
2022-11-04T07:58:25.478Z,45.85
2022-11-04T08:00:58.350Z,45.82
2022-11-04T08:03:25.006Z,45.62
2022-11-04T08:05:59.079Z,45.74
2022-11-04T08:08:25.890Z,45.68
2022-11-04T08:11:03.940Z,45.59
2022-11-04T08:13:31.936Z,45.74
2022-11-04T08:16:03.091Z,45.77
2022-11-04T08:18:31.644Z,45.75
2022-11-04T08:20:58.432Z,45.76
2022-11-04T08:23:24.948Z,45.77
2022-11-04T08:25:51.440Z,45.83
2022-11-04T08:28:17.955Z,45.62
2022-11-04T08:30:56.648Z,45.82
2022-11-04T08:33:24.660Z,45.71
2022-11-04T08:35:51.221Z,45.70
2022-11-04T08:38:17.690Z,45.77
2022-11-04T08:40:44.950Z,45.77
2022-11-04T08:43:11.886Z,45.83
2022-11-04T08:45:40.862Z,45.79
2022-11-04T08:48:07.677Z,45.72
2022-11-04T08:50:34.530Z,45.69
2022-11-04T08:53:01.072Z,45.73
2022-11-04T08:55:31.166Z,45.88
2022-11-04T08:57:58.107Z,45.85
2022-11-04T09:00:24.844Z,45.66
2022-11-04T09:02:51.610Z,45.85
2022-11-04T09:05:19.124Z,45.79
2022-11-04T09:07:46.036Z,45.99
2022-11-04T09:10:12.504Z,45.86
2022-11-04T09:12:39.000Z,45.87
2022-11-04T09:15:05.937Z,45.89
2022-11-04T09:17:32.401Z,45.81
2022-11-04T09:19:58.889Z,45.92
2022-11-04T09:22:25.532Z,45.96
2022-11-04T09:24:52.013Z,45.78
2022-11-04T09:27:18.489Z,45.82
2022-11-04T09:29:44.957Z,45.92
2022-11-04T09:32:11.499Z,45.85
2022-11-04T09:34:38.023Z,46.01
2022-11-04T09:37:04.524Z,45.86
2022-11-04T09:39:31.049Z,45.98
2022-11-04T09:42:11.151Z,45.89
2022-11-04T09:45:06.934Z,45.90
2022-11-04T09:47:28.341Z,45.94
2022-11-04T09:49:58.427Z,45.94
2022-11-04T09:52:29.007Z,46.00
2022-11-04T09:55:02.096Z,45.84
2022-11-04T09:57:29.106Z,45.92
2022-11-04T09:59:55.702Z,45.89
2022-11-04T10:02:24.965Z,45.90
2022-11-04T10:05:09.661Z,46.04
2022-11-04T10:08:10.653Z,45.99
2022-11-04T10:11:05.400Z,46.18
2022-11-04T10:14:08.884Z,46.22
2022-11-04T10:17:07.749Z,46.04
2022-11-04T10:19:56.576Z,46.01
2022-11-04T10:22:41.403Z,46.05
2022-11-04T10:25:16.245Z,45.97
2022-11-04T10:27:46.083Z,46.10
2022-11-04T10:30:12.491Z,46.21
2022-11-04T10:32:49.362Z,46.00
2022-11-04T10:35:34.166Z,46.10
2022-11-04T10:38:15.429Z,46.09
2022-11-04T10:40:44.583Z,46.18
2022-11-04T10:43:15.414Z,46.16
2022-11-04T10:45:48.732Z,46.21
2022-11-04T10:48:45.826Z,46.27
2022-11-04T10:51:12.306Z,46.21
2022-11-04T10:53:38.802Z,46.05
2022-11-04T10:56:19.572Z,46.25
2022-11-04T10:58:47.985Z,46.31
2022-11-04T11:01:34.043Z,46.16
2022-11-04T11:04:03.771Z,46.16
2022-11-04T11:06:35.749Z,46.10
2022-11-04T11:18:22.291Z,46.30
2022-11-04T11:20:51.985Z,46.25
2022-11-04T11:23:47.616Z,46.31
2022-11-04T11:26:20.212Z,46.10
2022-11-04T11:29:01.971Z,46.32
2022-11-04T11:31:37.411Z,46.33
2022-11-04T11:34:14.254Z,46.23
2022-11-04T11:36:44.593Z,46.29
2022-11-04T11:39:17.471Z,46.18
2022-11-04T11:41:59.290Z,46.33
2022-11-04T11:44:40.222Z,46.30
2022-11-04T11:47:17.626Z,46.23
2022-11-04T11:49:44.392Z,46.23
2022-11-04T11:52:31.889Z,46.17
2022-11-04T11:55:07.553Z,46.30
2022-11-04T11:57:46.422Z,46.40
2022-11-04T12:03:15.451Z,46.25
2022-11-04T12:09:23.356Z,46.36
2022-11-04T12:12:24.587Z,46.37
2022-11-04T12:15:06.188Z,46.29
2022-11-04T12:17:38.542Z,46.19
2022-11-04T12:20:41.749Z,46.22
2022-11-04T12:23:24.789Z,46.23
2022-11-04T12:26:01.088Z,46.41
2022-11-04T12:28:37.541Z,46.23
2022-11-04T12:31:11.004Z,46.27
2022-11-04T12:37:16.055Z,46.20
2022-11-04T12:40:02.766Z,46.32
2022-11-04T12:42:59.173Z,46.30
2022-11-04T12:45:46.098Z,46.21
2022-11-04T12:48:40.673Z,46.28
2022-11-04T12:51:26.033Z,46.17
2022-11-04T12:54:21.323Z,46.19
2022-11-04T12:57:06.421Z,46.25
2022-11-04T12:59:54.105Z,46.19
2022-11-04T13:02:28.971Z,46.32
2022-11-04T13:04:58.371Z,46.25
2022-11-04T13:07:36.319Z,46.33
2022-11-04T13:13:24.558Z,46.22
2022-11-04T13:16:06.343Z,46.16
2022-11-04T13:18:37.147Z,45.97
2022-11-04T13:21:12.299Z,46.11
2022-11-04T13:23:52.149Z,46.20
2022-11-04T13:26:19.027Z,46.03
2022-11-04T13:29:09.071Z,46.23
2022-11-04T13:31:54.277Z,46.03
2022-11-04T13:34:33.460Z,46.15
2022-11-04T13:37:22.233Z,46.00
2022-11-04T13:39:59.437Z,46.11
2022-11-04T13:42:47.648Z,45.99
2022-11-04T13:45:17.561Z,46.09
2022-11-04T13:47:54.344Z,45.93
2022-11-04T13:50:39.453Z,46.11
2022-11-04T13:53:09.962Z,45.87
2022-11-04T13:55:48.358Z,46.15
2022-11-04T13:58:25.986Z,46.05
2022-11-04T14:01:25.620Z,45.94
2022-11-04T14:04:02.053Z,45.89
2022-11-04T14:06:52.590Z,45.93
2022-11-04T14:09:25.167Z,45.83
2022-11-04T14:15:07.705Z,45.98
2022-11-04T14:17:34.334Z,45.96
2022-11-04T14:20:11.606Z,45.84
2022-11-04T14:22:44.143Z,45.97
2022-11-04T14:25:22.572Z,45.89
2022-11-04T14:27:52.106Z,46.00
2022-11-04T14:30:35.445Z,45.93
2022-11-04T14:33:16.793Z,45.96
2022-11-04T14:35:43.301Z,46.02
2022-11-04T14:38:29.262Z,46.02
2022-11-04T14:44:29.280Z,45.96
2022-11-04T14:47:00.027Z,45.96
2022-11-04T14:49:50.884Z,45.87
2022-11-04T14:52:37.653Z,46.00
2022-11-04T14:55:14.748Z,46.02
2022-11-04T14:57:44.571Z,45.91
2022-11-04T15:00:23.046Z,45.77
2022-11-04T15:03:01.693Z,45.90
2022-11-04T15:05:36.164Z,45.75
2022-11-04T15:08:23.755Z,45.80
2022-11-04T15:10:50.879Z,45.81
2022-11-04T15:13:21.107Z,45.79
2022-11-04T15:15:50.599Z,45.94
2022-11-04T15:18:28.531Z,45.85
2022-11-04T15:20:58.588Z,45.81
2022-11-04T15:23:33.344Z,45.83
2022-11-04T15:26:00.623Z,45.75
2022-11-04T15:28:41.677Z,45.59
2022-11-04T15:31:11.168Z,45.77
2022-11-04T15:33:44.354Z,45.77
2022-11-04T15:36:32.310Z,45.80
2022-11-04T15:39:14.358Z,45.82
2022-11-04T15:42:00.865Z,45.73
2022-11-04T15:44:30.947Z,45.88
2022-11-04T15:47:21.330Z,45.85
2022-11-04T15:49:49.955Z,45.76
2022-11-04T15:52:28.587Z,45.89
2022-11-04T15:55:00.014Z,45.82
2022-11-04T15:57:38.131Z,45.74
2022-11-04T16:00:25.898Z,45.64
2022-11-04T16:02:57.546Z,46.02
2022-11-04T16:05:28.959Z,45.72
2022-11-04T16:08:13.558Z,45.80
2022-11-04T16:10:40.329Z,45.74
2022-11-04T16:13:18.743Z,45.71
2022-11-04T16:15:50.363Z,45.79
2022-11-04T16:18:21.489Z,45.69
2022-11-04T16:20:50.520Z,45.74
2022-11-04T16:23:19.587Z,45.81
2022-11-04T16:25:46.264Z,45.67
2022-11-04T16:28:35.630Z,45.80
2022-11-04T16:31:06.314Z,45.80
2022-11-04T16:33:32.779Z,45.84
2022-11-04T16:35:59.251Z,45.88
2022-11-04T16:38:25.747Z,45.65
2022-11-04T16:40:52.293Z,45.67
2022-11-04T16:43:21.099Z,45.79
2022-11-04T16:45:53.477Z,45.63
2022-11-04T16:48:21.023Z,45.75
2022-11-04T16:50:48.920Z,45.64
2022-11-04T16:53:15.441Z,45.83
2022-11-04T16:55:44.420Z,45.73
2022-11-04T16:58:17.464Z,45.83
2022-11-04T17:00:44.068Z,45.70
2022-11-04T17:03:22.709Z,45.91
2022-11-04T17:05:56.227Z,45.87
2022-11-04T17:08:27.032Z,45.72
2022-11-04T17:10:54.221Z,45.80
2022-11-04T17:13:21.983Z,45.68
2022-11-04T17:15:48.728Z,45.68
2022-11-04T17:18:17.210Z,45.81
2022-11-04T17:20:47.687Z,45.77
2022-11-04T17:23:15.404Z,45.84
2022-11-04T17:25:43.127Z,45.78
2022-11-04T17:28:09.754Z,45.58
2022-11-04T17:30:37.307Z,45.62
2022-11-04T17:33:08.773Z,45.71
2022-11-04T17:35:38.214Z,45.80
2022-11-04T17:38:04.668Z,45.77
2022-11-04T17:40:31.175Z,45.81
2022-11-04T17:43:16.477Z,45.58
2022-11-04T17:45:44.250Z,45.73
2022-11-04T17:48:11.321Z,45.63
2022-11-04T17:50:41.361Z,45.78
2022-11-04T17:53:08.247Z,45.73
2022-11-04T17:55:40.109Z,45.88
2022-11-04T17:58:06.597Z,45.96
2022-11-04T18:00:33.746Z,45.71
2022-11-04T18:03:00.221Z,45.79
2022-11-04T18:05:26.974Z,45.72
2022-11-04T18:07:55.031Z,45.90
2022-11-04T18:10:21.592Z,45.84
2022-11-04T18:12:48.083Z,45.61
2022-11-04T18:15:17.086Z,45.65
2022-11-04T18:17:45.151Z,45.80
2022-11-04T18:20:15.519Z,45.84
2022-11-04T18:22:43.543Z,45.82
2022-11-04T18:25:10.721Z,45.93
2022-11-04T18:27:37.777Z,45.73
2022-11-04T18:30:05.427Z,45.86
2022-11-04T18:32:31.959Z,45.70
2022-11-04T18:34:58.637Z,45.86
2022-11-04T18:37:25.323Z,45.77
2022-11-04T18:39:51.792Z,45.81
2022-11-04T18:42:18.253Z,45.78
2022-11-04T18:44:44.811Z,45.81
2022-11-04T18:47:11.421Z,45.73
2022-11-04T18:49:38.108Z,45.71
2022-11-04T18:52:04.767Z,45.62
2022-11-04T18:54:31.318Z,45.84
2022-11-04T18:56:57.747Z,45.76
2022-11-04T18:59:24.221Z,45.78
2022-11-04T19:01:52.452Z,45.82
2022-11-04T19:04:19.145Z,45.72
2022-11-04T19:06:46.304Z,45.72
2022-11-04T19:12:21.019Z,45.90
2022-11-04T19:14:47.545Z,45.81
2022-11-04T19:17:14.087Z,45.66
2022-11-04T19:19:41.506Z,45.68
2022-11-04T19:22:08.331Z,45.73
2022-11-04T19:24:35.031Z,45.86
2022-11-04T19:27:01.581Z,45.97
2022-11-04T19:29:29.419Z,45.90
2022-11-04T19:31:56.002Z,45.82
2022-11-04T19:34:22.457Z,45.88
2022-11-04T19:36:48.956Z,45.84
2022-11-04T19:39:15.535Z,45.81
2022-11-04T19:42:00.569Z,45.67
2022-11-04T19:44:27.097Z,45.86
2022-11-04T19:46:53.641Z,45.76
2022-11-04T19:49:20.657Z,45.86
2022-11-04T19:51:47.316Z,45.78
2022-11-04T19:54:13.968Z,45.85
2022-11-04T19:56:40.990Z,45.77
2022-11-04T19:59:09.278Z,45.75
2022-11-04T20:01:36.441Z,45.78
2022-11-04T20:04:04.134Z,45.84
2022-11-04T20:06:32.383Z,45.66
2022-11-04T20:09:05.348Z,45.79
2022-11-04T20:11:33.731Z,45.78
2022-11-04T20:14:07.505Z,45.79
2022-11-04T20:16:36.808Z,45.72
2022-11-04T20:19:04.737Z,45.61
2022-11-04T20:21:36.536Z,45.78
2022-11-04T20:24:06.183Z,45.82
2022-11-04T20:26:33.897Z,45.82
2022-11-04T20:29:00.677Z,45.77
2022-11-04T20:31:29.891Z,45.60
2022-11-04T20:33:57.825Z,45.80
2022-11-04T20:36:26.466Z,45.66
2022-11-04T20:39:00.692Z,45.74
2022-11-04T20:41:27.861Z,45.93
2022-11-04T20:43:55.802Z,45.69
2022-11-04T20:46:27.867Z,45.82
2022-11-04T20:48:56.077Z,45.77
2022-11-04T20:51:25.118Z,45.78
2022-11-04T20:53:56.152Z,45.76
2022-11-04T20:56:27.941Z,45.80
2022-11-04T20:58:59.149Z,46.00
2022-11-04T21:01:38.741Z,45.75
2022-11-04T21:04:15.063Z,45.64
2022-11-04T21:06:42.359Z,45.92
2022-11-04T21:09:11.447Z,45.92
2022-11-04T21:11:39.589Z,45.81
2022-11-04T21:14:07.927Z,45.83
2022-11-04T21:16:35.736Z,45.78
2022-11-04T21:19:02.612Z,45.75
2022-11-04T21:21:33.115Z,45.87
2022-11-04T21:24:01.582Z,45.73
2022-11-04T21:26:30.187Z,45.82
2022-11-04T21:28:58.333Z,46.00
2022-11-04T21:31:25.871Z,45.73
2022-11-04T21:33:53.089Z,45.78
2022-11-04T21:36:20.415Z,45.78
2022-11-04T21:38:46.945Z,45.90
2022-11-04T21:41:16.322Z,45.75
2022-11-04T21:43:42.887Z,45.87
2022-11-04T21:46:14.570Z,45.91
2022-11-04T21:48:42.687Z,45.85
2022-11-04T21:51:12.758Z,45.73
2022-11-04T21:53:39.460Z,45.88
2022-11-04T21:56:11.943Z,45.90
2022-11-04T21:58:38.964Z,45.80
2022-11-04T22:01:07.637Z,45.74
2022-11-04T22:03:34.835Z,45.92
2022-11-04T22:06:07.391Z,45.83
2022-11-04T22:08:35.027Z,45.67
2022-11-04T22:11:09.207Z,45.78
2022-11-04T22:13:36.204Z,45.84
2022-11-04T22:16:13.965Z,45.70
2022-11-04T22:18:40.623Z,45.68
2022-11-04T22:21:10.630Z,45.75
2022-11-04T22:23:37.559Z,45.70
2022-11-04T22:26:06.370Z,45.68
2022-11-04T22:28:33.168Z,45.76
2022-11-04T22:31:12.225Z,45.94
2022-11-04T22:33:39.096Z,45.89
2022-11-04T22:36:06.570Z,45.98
2022-11-04T22:38:34.044Z,45.82
2022-11-04T22:41:01.863Z,45.81
2022-11-04T22:43:28.858Z,45.80
2022-11-04T22:45:56.761Z,46.00
2022-11-04T22:48:23.491Z,45.66
2022-11-04T22:50:58.179Z,45.83
2022-11-04T22:53:25.243Z,45.84
2022-11-04T22:55:52.684Z,45.81
2022-11-04T22:58:19.369Z,45.84
2022-11-04T23:00:46.499Z,45.83
2022-11-04T23:03:13.393Z,45.96
2022-11-04T23:05:40.077Z,45.67
2022-11-04T23:08:06.514Z,45.78
2022-11-04T23:10:52.004Z,45.88
2022-11-04T23:13:37.132Z,45.76
2022-11-04T23:16:21.980Z,45.98
2022-11-04T23:18:51.512Z,45.85
2022-11-04T23:21:39.331Z,45.86
2022-11-04T23:24:25.160Z,45.85
2022-11-04T23:26:51.960Z,45.74
2022-11-04T23:29:37.423Z,45.68
2022-11-04T23:32:04.237Z,45.80
2022-11-04T23:34:49.092Z,45.65
2022-11-04T23:37:15.697Z,45.75
2022-11-04T23:39:51.242Z,45.55
2022-11-04T23:42:21.024Z,45.88
2022-11-04T23:45:10.278Z,45.82
2022-11-04T23:47:57.044Z,45.81
2022-11-04T23:50:43.428Z,45.75
2022-11-04T23:53:31.479Z,45.79
2022-11-04T23:56:17.333Z,45.54
2022-11-04T23:59:02.911Z,45.78
